Latest Weather Observations for Coldstream

IDV60801

Issued at 6:32 pm EDT Tuesday 17 October 2017 (issued every 30 minutes, with the page automatically refreshed every 10 minutes)

About weather observations | Map of weather stations | Latest weather observations for VIC | Other Formats
Station Details ID: 086383 Name: COLDSTREAM Lat: -37.72 Lon: 145.41 Height: 83.0 m
Data from the previous 72 hours. | See also: Recent months at Coldstream
Date/Time
EDT
Temp
°C
App
Temp
°C
Dew
Point
°C
Rel
Hum
%
Delta-T
°C
Wind Press
QNH
hPa
Press
MSL
hPa
Rain since
9am
mm
Dir  Spd
km/h
Gust
km/h
Spd
kts
Gust
kts
17/06:30pm 27.2 26.5 11.3 37 9.1 NNW 6 9 3 5 1020.6 1020.6 0.0
17/06:00pm 27.7 26.9 10.9 35 9.5 NNW 6 11 3 6 1020.6 1020.6 0.0
17/05:30pm 27.8 25.5 9.1 31 10.3 NNW 11 17 6 9 1020.7 1020.7 0.0
17/05:00pm 28.4 26.3 9.6 31 10.5 NNW 11 19 6 10 1020.8 1020.8 0.0
17/04:30pm 28.3 25.4 8.1 28 11.0 NNW 13 17 7 9 1020.9 1020.9 0.0
17/04:00pm 28.4 25.9 9.6 31 10.5 NNW 13 19 7 10 1021.0 1021.0 0.0
17/03:30pm 28.3 25.9 10.0 32 10.3 NNW 13 22 7 12 1021.1 1021.1 0.0
17/03:00pm 28.1 25.4 8.9 30 10.6 NNW 13 22 7 12 1021.3 1021.3 0.0
17/02:30pm 27.8 25.0 10.1 33 9.9 NNW 15 24 8 13 1021.7 1021.7 0.0
17/02:00pm 27.6 24.8 9.9 33 9.9 NNW 15 24 8 13 1021.9 1021.9 0.0
17/01:30pm 27.1 24.1 10.8 36 9.2 NNW 17 24 9 13 1022.2 1022.2 0.0
17/01:00pm 26.3 22.9 11.2 38 8.6 NNW 20 30 11 16 1022.5 1022.5 0.0
17/12:30pm 26.1 23.7 12.5 42 7.9 NNW 17 30 9 16 1022.8 1022.8 0.0
17/12:00pm 25.5 22.5 12.0 43 7.7 NNW 19 32 10 17 1023.2 1023.2 0.0
17/11:30am 24.9 22.0 11.1 42 7.8 N 17 28 9 15 1023.4 1023.4 0.0
17/11:00am 25.1 24.8 14.3 51 6.4 NE 9 17 5 9 1023.6 1023.6 0.0
17/10:30am 23.9 23.6 13.4 51 6.1 NNE 7 11 4 6 1023.8 1023.8 0.0
17/10:00am 22.4 21.6 11.8 51 5.9 N 7 9 4 5 1024.0 1024.0 0.0
17/09:30am 21.3 20.6 13.2 60 4.7 NNW 9 13 5 7 1024.0 1024.0 0.0
17/09:00am 20.1 19.5 13.6 66 3.7 NNE 9 13 5 7 1023.8 1023.8 0.0
17/08:30am 17.7 19.8 16.2 91 0.9 CALM 0 0 0 0 1023.7 1023.7 0.0
17/08:00am 14.7 15.5 14.7 100 0.0 ESE 4 9 2 5 1023.6 1023.6 0.0
17/07:30am 10.1 10.2 10.0 99 0.1 CALM 0 0 0 0 1023.3 1023.3 0.0
17/07:00am 7.4 6.8 7.3 99 0.0 CALM 0 0 0 0 1023.0 1023.0 0.0
17/06:30am 7.9 7.0 7.8 99 0.0 N 2 9 1 5 1022.8 1022.8 0.0
17/06:00am 8.6 8.3 8.5 99 0.0 CALM 0 0 0 0 1022.4 1022.4 0.0
17/05:30am 9.2 9.0 9.1 99 0.0 CALM 0 6 0 3 1022.3 1022.3 0.0
17/05:00am 8.3 7.9 8.2 99 0.0 CALM 0 0 0 0 1022.5 1022.5 0.0
17/04:30am 8.5 8.1 8.4 99 0.0 CALM 0 0 0 0 1022.3 1022.3 0.0
17/04:00am 8.9 8.6 8.8 99 0.0 CALM 0 0 0 0 1022.4 1022.4 0.0
17/03:30am 8.7 8.4 8.6 99 0.0 CALM 0 0 0 0 1022.5 1022.5 0.0
17/03:00am 9.1 8.9 9.0 99 0.0 CALM 0 0 0 0 1022.4 1022.4 0.0
17/02:30am 10.0 10.0 9.9 99 0.1 CALM 0 0 0 0 1022.6 1022.6 0.0
17/02:00am 9.9 9.9 9.8 99 0.1 CALM 0 0 0 0 1022.9 1022.9 0.0
17/01:30am 10.8 11.0 10.6 99 0.1 CALM 0 0 0 0 1023.1 1023.1 0.0
17/01:00am 11.3 11.7 11.1 99 0.1 CALM 0 0 0 0 1023.4 1023.4 0.0
17/12:30am 11.8 12.3 11.6 99 0.1 CALM 0 0 0 0 1023.4 1023.4 0.0
17/12:00am 12.5 13.2 12.3 99 0.1 CALM 0 0 0 0 1023.5 1023.5 0.0
 
Date/Time
EDT
Temp
°C
App
Temp
°C
Dew
Point
°C
Rel
Hum
%
Delta-T
°C
Wind Press
QNH
hPa
Press
MSL
hPa
Rain since
9am
mm
Dir  Spd
km/h
Gust
km/h
Spd
kts
Gust
kts
16/11:30pm 12.8 13.6 12.5 98 0.2 CALM 0 0 0 0 1023.3 1023.3 0.0
16/11:00pm 13.4 14.3 12.9 97 0.3 CALM 0 6 0 3 1023.2 1023.2 0.0
16/10:30pm 14.0 15.0 13.1 94 0.5 CALM 0 0 0 0 1023.2 1023.2 0.0
16/10:00pm 14.7 15.3 13.2 91 0.8 ESE 2 6 1 3 1023.3 1023.3 0.0
16/09:30pm 15.7 16.8 13.4 86 1.3 CALM 0 0 0 0 1023.1 1023.1 0.0
16/09:00pm 17.6 18.9 14.1 80 2.0 CALM 0 0 0 0 1023.0 1023.0 0.0
16/08:30pm 16.5 17.8 14.2 86 1.3 CALM 0 6 0 3 1022.6 1022.6 0.0
16/08:00pm 17.6 18.7 13.5 77 2.3 CALM 0 0 0 0 1022.2 1022.2 0.0
16/07:30pm 21.4 22.9 14.6 65 4.0 CALM 0 0 0 0 1022.0 1022.0 0.0
16/07:00pm 24.4 25.4 13.3 50 6.5 CALM 0 6 0 3 1021.8 1021.8 0.0
16/06:30pm 25.6 25.4 13.5 47 7.1 NNW 7 13 4 7 1021.7 1021.7 0.0
16/06:00pm 26.1 25.4 13.2 44 7.5 NNW 9 15 5 8 1021.6 1021.6 0.0
16/05:30pm 26.6 25.0 11.5 39 8.6 NNW 11 15 6 8 1021.6 1021.6 0.0
16/05:00pm 26.7 25.2 12.0 40 8.5 N 11 15 6 8 1021.7 1021.7 0.0
16/04:30pm 27.0 26.0 13.4 43 8.0 NNE 11 20 6 11 1021.7 1021.7 0.0
16/04:00pm 26.9 25.8 11.8 39 8.7 NNW 9 17 5 9 1022.1 1022.1 0.0
16/03:30pm 26.9 25.8 10.6 36 9.2 NNW 7 13 4 7 1022.4 1022.4 0.0
16/03:00pm 27.2 25.9 12.4 40 8.6 NW 11 20 6 11 1022.7 1022.7 0.0
16/02:30pm 26.7 24.9 12.0 40 8.5 NNW 13 22 7 12 1023.0 1023.0 0.0
16/02:00pm 26.1 23.2 12.2 42 8.0 N 19 26 10 14 1023.1 1023.1 0.0
16/01:30pm 25.7 23.4 14.2 49 6.9 N 19 32 10 17 1023.4 1023.4 0.0
16/01:00pm 25.4 23.1 14.2 50 6.6 N 19 33 10 18 1023.7 1023.7 0.0
16/12:30pm 24.6 21.8 13.2 49 6.6 NNW 20 32 11 17 1024.1 1024.1 0.0
16/12:00pm 23.7 20.9 12.7 50 6.3 N 19 30 10 16 1024.5 1024.5 0.0
16/11:30am 21.9 21.6 14.5 63 4.4 N 9 13 5 7 1025.0 1025.1 0.0
16/11:00am 20.2 20.4 14.1 68 3.5 NNE 6 9 3 5 1025.5 1025.6 0.0
16/10:30am 18.3 19.4 14.6 79 2.1 NE 2 7 1 4 1025.7 1025.8 0.0
16/10:00am 15.5 16.4 13.9 90 0.9 NW 2 7 1 4 1026.0 1026.1 0.0
16/09:30am 13.5 13.8 13.3 99 0.1 N 4 9 2 5 1026.0 1026.1 0.0
16/09:00am 12.5 13.3 12.5 100 0.0 CALM 0 6 0 3 1026.0 1026.1 0.0
16/08:30am 11.7 11.5 11.7 100 0.0 ESE 4 9 2 5 1025.9 1026.0 0.0
16/08:00am 11.3 11.3 11.1 99 0.1 ENE 2 6 1 3 1025.8 1025.9 0.0
16/07:30am 11.1 11.4 10.9 99 0.1 CALM 0 6 0 3 1025.6 1025.7 0.0
16/07:00am 11.1 11.4 10.9 99 0.1 CALM 0 0 0 0 1025.3 1025.4 0.0
16/06:30am 11.1 11.5 11.1 100 0.0 CALM 0 0 0 0 1025.0 1025.1 0.0
16/06:00am 11.0 11.3 11.0 100 0.0 CALM 0 6 0 3 1024.9 1025.0 0.0
16/05:30am 10.9 10.0 10.7 99 0.1 WSW 6 7 3 4 1024.7 1024.8 0.0
16/05:00am 10.9 10.0 10.7 99 0.1 W 6 7 3 4 1024.5 1024.5 0.0
16/04:30am 10.8 9.9 10.6 99 0.1 WSW 6 7 3 4 1024.5 1024.5 0.0
16/04:00am 10.8 9.7 10.6 99 0.1 WSW 7 9 4 5 1024.7 1024.8 0.0
16/03:30am 10.7 9.6 10.5 99 0.1 WSW 7 11 4 6 1024.6 1024.6 0.0
16/03:00am 10.6 9.1 10.4 99 0.1 WSW 9 13 5 7 1024.8 1024.9 0.0
16/02:30am 7.9 7.4 7.8 99 0.0 CALM 0 4 0 2 1025.1 1025.2 0.0
16/02:00am 7.3 6.7 7.2 99 0.0 CALM 0 0 0 0 1025.1 1025.2 0.0
16/01:30am 7.6 7.0 7.5 99 0.0 CALM 0 0 0 0 1025.2 1025.3 0.0
16/01:00am 7.9 7.4 7.8 99 0.0 CALM 0 0 0 0 1025.2 1025.3 0.0
16/12:30am 9.2 9.0 9.1 99 0.0 CALM 0 0 0 0 1025.1 1025.2 0.0
16/12:00am 9.4 9.3 9.3 99 0.0 CALM 0 6 0 3 1025.1 1025.2 0.0
 
Date/Time
EDT
Temp
°C
App
Temp
°C
Dew
Point
°C
Rel
Hum
%
Delta-T
°C
Wind Press
QNH
hPa
Press
MSL
hPa
Rain since
9am
mm
Dir  Spd
km/h
Gust
km/h
Spd
kts
Gust
kts
15/11:30pm 9.8 9.8 9.7 99 0.1 CALM 0 0 0 0 1025.1 1025.2 0.0
15/11:00pm 10.4 10.5 10.2 99 0.1 CALM 0 0 0 0 1025.0 1025.1 0.0
15/10:30pm 11.4 11.7 10.9 97 0.3 CALM 0 0 0 0 1025.1 1025.2 0.0
15/10:00pm 12.4 13.1 12.1 98 0.2 CALM 0 2 0 1 1025.1 1025.2 0.0
15/09:30pm 12.9 13.4 11.6 92 0.7 CALM 0 0 0 0 1025.1 1025.2 0.0
15/09:00pm 13.4 13.4 11.1 86 1.2 S 2 7 1 4 1024.8 1024.9 0.0
15/08:30pm 14.6 14.8 11.9 84 1.5 W 2 7 1 4 1024.2 1024.2 0.0
15/08:00pm 16.4 15.1 12.6 78 2.1 SSE 11 17 6 9 1023.9 1023.9 0.0
15/07:30pm 17.3 15.5 12.2 72 2.8 SSE 13 22 7 12 1023.6 1023.6 0.0
15/07:00pm 18.1 16.3 12.1 68 3.3 SSE 13 17 7 9 1023.4 1023.4 0.0
15/06:30pm 19.0 17.2 12.0 64 3.9 SSE 13 20 7 11 1023.3 1023.3 0.0
15/06:00pm 20.0 17.8 12.0 60 4.5 SSE 15 20 8 11 1023.2 1023.2 0.0
15/05:30pm 20.6 17.8 11.2 55 5.2 SSE 17 28 9 15 1023.0 1023.0 0.0
15/05:00pm 20.4 17.8 12.1 59 4.6 SSE 17 26 9 14 1022.9 1022.9 0.0
15/04:30pm 23.6 22.6 12.3 49 6.5 SW 9 15 5 8 1022.7 1022.7 0.0
15/04:00pm 23.5 22.8 11.9 48 6.6 W 7 15 4 8 1022.8 1022.8 0.0
15/03:30pm 23.2 22.5 11.3 47 6.7 S 6 11 3 6 1023.0 1023.0 0.0
15/03:00pm 22.9 23.2 13.4 55 5.5 E 4 13 2 7 1023.2 1023.2 0.0
15/02:30pm 21.3 20.7 12.2 56 5.1 N 7 11 4 6 1023.5 1023.5 0.0
15/02:00pm 20.6 20.2 12.3 59 4.7 NNW 6 13 3 7 1023.8 1023.8 0.0
15/01:30pm 19.7 19.6 12.0 61 4.3 WSW 4 7 2 4 1024.1 1024.1 0.0
15/01:00pm 18.9 18.8 12.2 65 3.7 NW 4 9 2 5 1024.5 1024.5 0.0
15/12:30pm 17.8 17.8 11.1 65 3.6 NW 2 11 1 6 1024.9 1025.0 0.0
15/12:00pm 17.0 15.9 10.6 66 3.4 W 7 9 4 5 1025.2 1025.3 0.0
15/11:30am 16.4 15.4 10.3 67 3.2 SW 6 9 3 5 1025.5 1025.6 0.0
15/11:00am 15.1 13.8 10.1 72 2.6 S 7 15 4 8 1025.8 1025.9 0.0
15/10:30am 13.8 13.1 10.0 78 2.0 SSW 4 11 2 6 1026.1 1026.2 0.0
15/10:00am 13.1 11.8 9.9 81 1.6 ESE 7 11 4 6 1026.1 1026.2 0.0
15/09:30am 11.5 10.7 10.9 96 0.3 SE 6 13 3 7 1026.3 1026.4 0.0
15/09:00am 9.3 9.1 9.2 99 0.0 CALM 0 0 0 0 1026.3 1026.4 0.0
15/08:30am 7.9 7.4 7.8 99 0.0 CALM 0 0 0 0 1026.2 1026.3 0.0
15/08:00am 6.3 5.4 6.2 99 0.0 CALM 0 0 0 0 1026.2 1026.3 0.0
15/07:30am 4.4 2.4 4.3 99 0.0 S 4 7 2 4 1026.0 1026.1 0.0
15/07:00am 2.9 1.4 2.8 99 0.0 CALM 0 0 0 0 1025.6 1025.7 0.0
15/06:30am 2.4 0.8 2.3 99 0.0 CALM 0 0 0 0 1025.0 1025.1 0.0
15/06:00am 2.5 0.9 2.4 99 0.0 CALM 0 0 0 0 1024.6 1024.6 0.0
15/05:30am 2.4 0.8 2.3 99 0.0 CALM 0 0 0 0 1024.3 1024.3 0.0
15/05:00am 2.9 1.4 2.8 99 0.0 CALM 0 0 0 0 1024.2 1024.2 0.0
15/04:30am 2.8 1.2 2.7 99 0.0 CALM 0 0 0 0 1024.3 1024.3 0.0
15/04:00am 3.3 1.8 3.2 99 0.0 CALM 0 0 0 0 1024.2 1024.2 0.0
15/03:30am 3.9 2.5 3.8 99 0.0 CALM 0 0 0 0 1024.4 1024.4 0.0
15/03:00am 3.9 2.5 3.8 99 0.0 CALM 0 0 0 0 1024.5 1024.5 0.0
15/02:30am 3.8 2.4 3.7 99 0.0 CALM 0 0 0 0 1024.4 1024.4 0.0
15/02:00am 4.2 2.9 4.1 99 0.0 CALM 0 0 0 0 1024.6 1024.6 0.0
15/01:30am 4.8 2.9 4.7 99 0.0 S 4 7 2 4 1024.8 1024.9 0.0
15/01:00am 5.3 4.2 5.2 99 0.0 CALM 0 0 0 0 1025.0 1025.1 0.0
15/12:30am 5.7 4.6 5.3 97 0.2 CALM 0 0 0 0 1025.0 1025.1 0.0
15/12:00am 6.0 4.9 5.0 93 0.4 CALM 0 0 0 0 1024.9 1025.0 0.0
 
Date/Time
EDT
Temp
°C
App
Temp
°C
Dew
Point
°C
Rel
Hum
%
Delta-T
°C
Wind Press
QNH
hPa
Press
MSL
hPa
Rain since
9am
mm
Dir  Spd
km/h
Gust
km/h
Spd
kts
Gust
kts
14/11:30pm 7.1 6.0 4.9 86 1.0 CALM 0 0 0 0 1025.0 1025.1 0.0
14/11:00pm 9.4 7.2 6.3 81 1.4 S 7 11 4 6 1025.0 1025.1 0.0
14/10:30pm 9.9 7.9 6.3 78 1.7 S 6 7 3 4 1025.2 1025.3 0.0
14/10:00pm 11.0 8.1 6.4 73 2.2 SSE 11 15 6 8 1025.1 1025.2 0.0
14/09:30pm 11.2 8.2 5.9 70 2.5 SSE 11 20 6 11 1024.9 1025.0 0.0
14/09:00pm 11.7 8.4 6.4 70 2.5 SSE 13 19 7 10 1024.9 1025.0 0.0
14/08:30pm 12.3 9.0 6.6 68 2.7 SSE 13 22 7 12 1024.7 1024.8 0.0
14/08:00pm 12.9 9.8 7.1 68 2.8 S 13 20 7 11 1024.7 1024.8 0.0
14/07:30pm 13.7 10.2 7.2 65 3.2 S 15 24 8 13 1024.3 1024.3 0.0
14/07:00pm 14.8 11.7 7.4 61 3.6 SSE 13 22 7 12 1024.0 1024.0 0.0

Other Formats:

Comma delimited format used in spreadsheet applications
http://www.bom.gov.au/fwo/IDV60801/IDV60801.94864.axf

JavaScript Object Notation format (JSON) in row-major order
http://www.bom.gov.au/fwo/IDV60801/IDV60801.94864.json